PN44 weather

Public forecast

Using degrees Fahrenheit for public forecast. Weather courtesy of forecast.io.

Closest aviation weather report (METAR) to Merck/Upper Gwynedd Heliport

Closest report is Wings Field, 4.8 nm (8.8 km) S. Retrieved 2020/08/11 12:35 UTC (0 seconds ago):

KLOM 111235Z AUTO 00000KT 7SM BR OVC005 25/24 A3000 RMK AO2 T02480238

Closest aviation forecast (TAF) to Merck/Upper Gwynedd Heliport

Closest forecast is Northeast Philadelphia Airport, 14.8 nm (27.3 km) ESE. Retrieved 2020/08/11 12:36 UTC (0 seconds ago):

TAF KPNE 111133Z 1112/1212 VRB03KT P6SM FEW010 TEMPO 1112/1114 BKN010 FM111400 19005KT P6SM BKN200 FM111800 19009KT P6SM FEW060 FM120900 VRB03KT P6SM BKN050